Time;durP1;ratioP1;P1;durP2;ratioP2;P2;SDS_P1;SDS_P2;PMS_P1;PMS_P2;Temp;Humidity;BMP_temperature;BMP_pressure;BME280_temperature;BME280_humidity;BME280_pressure;Samples;Min_cycle;Max_cycle;Signal;HPM_P1;HPM_P2
2023/08/07 00:01:37;;;;;;;;;;;12.60;99.90;;;;;;20918232;28;19924;-76
2023/08/07 00:11:38;;;;;;;;;;;12.60;99.90;;;;;;20931127;28;20011;-76
2023/08/07 00:21:39;;;;;;;;;;;12.70;99.90;;;;;;20989944;28;19923;-77
2023/08/07 00:31:39;;;;;;;;;;;12.80;99.90;;;;;;20969562;28;19999;-76
2023/08/07 00:41:40;;;;;;;;;;;12.80;99.90;;;;;;20959271;28;19916;-75
2023/08/07 00:51:41;;;;;;;;;;;12.70;99.90;;;;;;20959713;28;19916;-76
2023/08/07 01:01:42;;;;;;;;;;;12.40;99.90;;;;;;20944231;28;20367;-76
2023/08/07 01:11:45;;;;;;;;;;;12.30;99.90;;;;;;20943840;28;20306;-76
2023/08/07 01:21:48;;;;;;;;;;;12.30;99.90;;;;;;21001722;28;20370;-76
2023/08/07 01:31:49;;;;;;;;;;;12.20;99.90;;;;;;21001060;28;19913;-76
2023/08/07 01:41:50;;;;;;;;;;;12.10;99.90;;;;;;20957803;28;21426;-76
2023/08/07 01:51:50;;;;;;;;;;;12.10;99.90;;;;;;20958515;28;19944;-76
2023/08/07 02:01:51;;;;;;;;;;;12.00;99.90;;;;;;20954813;28;19966;-76
2023/08/07 02:11:52;;;;;;;;;;;12.00;99.90;;;;;;20954772;28;19913;-76
2023/08/07 02:21:52;;;;;;;;;;;12.00;99.90;;;;;;20953926;28;20321;-76
2023/08/07 02:31:53;;;;;;;;;;;12.00;99.90;;;;;;20953235;28;19916;-76
2023/08/07 02:41:54;;;;;;;;;;;12.00;99.90;;;;;;20953775;28;20011;-77
2023/08/07 02:51:54;;;;;;;;;;;12.00;99.90;;;;;;20953175;28;20444;-77
2023/08/07 03:01:56;;;;;;;;;;;12.00;99.90;;;;;;20951064;28;19917;-76
2023/08/07 03:12:02;;;;;;;;;;;12.00;99.90;;;;;;20950749;28;20303;-77
2023/08/07 03:22:03;;;;;;;;;;;12.10;99.90;;;;;;20948939;28;19917;-76
2023/08/07 03:32:04;;;;;;;;;;;12.00;99.90;;;;;;20947487;28;20346;-76
2023/08/07 03:42:07;;;;;;;;;;;12.00;99.90;;;;;;20956696;28;19969;-76
2023/08/07 03:52:08;;;;;;;;;;;12.00;99.90;;;;;;20989564;28;19913;-76
2023/08/07 04:02:08;;;;;;;;;;;11.90;99.90;;;;;;20966190;28;20396;-75
2023/08/07 04:12:09;;;;;;;;;;;11.90;99.90;;;;;;20955140;28;20424;-76
2023/08/07 04:22:10;;;;;;;;;;;11.90;99.90;;;;;;21005086;28;19917;-76
2023/08/07 04:32:10;;;;;;;;;;;11.80;99.90;;;;;;21004654;28;19916;-77
2023/08/07 04:42:11;;;;;;;;;;;11.80;99.90;;;;;;21004742;28;19927;-76
2023/08/07 04:52:12;;;;;;;;;;;11.90;99.90;;;;;;21004234;28;20324;-76
2023/08/07 05:02:12;;;;;;;;;;;11.90;99.90;;;;;;21002052;28;19924;-76
2023/08/07 05:12:13;;;;;;;;;;;12.00;99.90;;;;;;21001983;28;19916;-77
2023/08/07 05:22:14;;;;;;;;;;;12.20;99.90;;;;;;21002783;28;19951;-76
2023/08/07 05:32:14;;;;;;;;;;;12.50;99.90;;;;;;20979719;28;20379;-77
2023/08/07 05:42:15;;;;;;;;;;;12.30;99.90;;;;;;20944325;28;19916;-75
2023/08/07 05:52:17;;;;;;;;;;;12.40;99.90;;;;;;20953611;28;19913;-76
2023/08/07 06:02:19;;;;;;;;;;;12.60;99.90;;;;;;20972301;28;19997;-75
2023/08/07 06:12:19;;;;;;;;;;;13.00;99.90;;;;;;20971024;28;19936;-75
2023/08/07 06:22:20;;;;;;;;;;;13.80;99.90;;;;;;20995602;28;19917;-75
2023/08/07 06:32:21;;;;;;;;;;;14.10;99.90;;;;;;20994258;28;20371;-75
2023/08/07 06:42:21;;;;;;;;;;;14.30;99.90;;;;;;21002020;28;19920;-75
2023/08/07 06:52:22;;;;;;;;;;;14.40;99.90;;;;;;20995127;28;20036;-76
2023/08/07 07:02:22;;;;;;;;;;;14.50;99.90;;;;;;20994334;28;19938;-76
2023/08/07 07:12:23;;;;;;;;;;;14.20;99.90;;;;;;20991530;28;19912;-76
2023/08/07 07:22:26;;;;;;;;;;;14.40;99.90;;;;;;20991096;28;20434;-76
2023/08/07 07:32:26;;;;;;;;;;;14.20;99.90;;;;;;20991680;28;19970;-76
2023/08/07 07:42:27;;;;;;;;;;;13.60;99.90;;;;;;20999625;28;19916;-76
2023/08/07 07:52:27;;;;;;;;;;;13.30;99.90;;;;;;20991439;28;19999;-76
2023/08/07 08:02:28;;;;;;;;;;;13.50;99.90;;;;;;20990854;28;19920;-76
2023/08/07 08:12:30;;;;;;;;;;;14.00;99.90;;;;;;20990663;28;19919;-76
2023/08/07 08:22:30;;;;;;;;;;;13.70;99.90;;;;;;20989687;28;19963;-75
2023/08/07 08:32:31;;;;;;;;;;;14.40;99.90;;;;;;20962520;28;20316;-76
2023/08/07 08:42:32;;;;;;;;;;;14.70;99.90;;;;;;20960207;28;19924;-76
2023/08/07 08:52:33;;;;;;;;;;;14.20;99.90;;;;;;20981008;28;19916;-76
2023/08/07 09:02:34;;;;;;;;;;;15.50;99.90;;;;;;20989903;28;19916;-77
2023/08/07 09:12:36;;;;;;;;;;;15.50;99.90;;;;;;20990675;28;19928;-76
2023/08/07 09:22:36;;;;;;;;;;;16.40;99.90;;;;;;20991129;28;20003;-77
2023/08/07 09:32:38;;;;;;;;;;;16.20;99.90;;;;;;20990404;28;19956;-77
2023/08/07 09:42:39;;;;;;;;;;;16.10;99.90;;;;;;20999334;28;19970;-76
2023/08/07 09:52:40;;;;;;;;;;;17.20;99.90;;;;;;21001375;28;19920;-76
2023/08/07 10:02:42;;;;;;;;;;;17.40;99.90;;;;;;20990131;28;19917;-76
2023/08/07 10:12:45;;;;;;;;;;;17.60;99.90;;;;;;20987644;28;19975;-75
2023/08/07 10:22:46;;;;;;;;;;;17.00;99.90;;;;;;20997049;28;19920;-75
2023/08/07 10:32:48;;;;;;;;;;;16.70;99.90;;;;;;20997883;28;19919;-75
2023/08/07 10:42:51;;;;;;;;;;;17.40;99.90;;;;;;20995456;28;19920;-75
2023/08/07 10:52:52;;;;;;;;;;;18.00;99.90;;;;;;20993461;28;19946;-75
2023/08/07 11:02:53;;;;;;;;;;;18.70;99.90;;;;;;20993776;28;19916;-75
2023/08/07 11:12:57;;;;;;;;;;;19.00;99.90;;;;;;20997586;28;20024;-79
2023/08/07 11:22:59;;;;;;;;;;;17.90;99.90;;;;;;20951935;22;19968;-75
2023/08/07 11:32:59;;;;;;;;;;;18.90;99.90;;;;;;20876358;28;19960;-76
2023/08/07 11:43:00;;;;;;;;;;;19.30;99.90;;;;;;20851770;28;20398;-76
2023/08/07 11:53:01;;;;;;;;;;;18.00;99.90;;;;;;20831014;28;19974;-75
2023/08/07 12:03:01;;;;;;;;;;;17.80;99.90;;;;;;20833762;28;19924;-75
2023/08/07 12:13:04;;;;;;;;;;;15.60;99.90;;;;;;20825903;28;19917;-76
2023/08/07 12:23:11;;;;;;;;;;;18.50;99.90;;;;;;20825866;28;20276;-76
2023/08/07 12:33:12;;;;;;;;;;;18.40;99.90;;;;;;20838139;28;19951;-75
2023/08/07 12:43:12;;;;;;;;;;;19.10;99.90;;;;;;20849442;28;19917;-76
2023/08/07 12:53:13;;;;;;;;;;;19.20;99.90;;;;;;20837830;28;19913;-76
2023/08/07 13:03:14;;;;;;;;;;;18.50;99.90;;;;;;20891317;28;19978;-75
2023/08/07 13:13:14;;;;;;;;;;;17.40;99.90;;;;;;20920390;28;20341;-75
2023/08/07 13:23:15;;;;;;;;;;;19.10;99.90;;;;;;20881408;28;19921;-73
2023/08/07 13:33:15;;;;;;;;;;;19.60;99.90;;;;;;20840473;28;19913;-75
2023/08/07 13:43:16;;;;;;;;;;;18.70;99.90;;;;;;20831547;28;19921;-76
2023/08/07 13:53:17;;;;;;;;;;;18.30;99.90;;;;;;20832183;28;19924;-76
2023/08/07 14:03:17;;;;;;;;;;;19.20;99.90;;;;;;20828777;28;19944;-76
2023/08/07 14:13:18;;;;;;;;;;;19.40;99.90;;;;;;20830816;28;19968;-76
2023/08/07 14:23:19;;;;;;;;;;;19.70;99.90;;;;;;20854320;28;19917;-75
2023/08/07 14:33:19;;;;;;;;;;;19.50;99.90;;;;;;20913634;28;19920;-75
2023/08/07 14:43:20;;;;;;;;;;;18.60;99.90;;;;;;20850191;28;19960;-75
2023/08/07 14:53:21;;;;;;;;;;;17.70;99.90;;;;;;20830911;28;19967;-76
2023/08/07 15:03:21;;;;;;;;;;;16.80;99.90;;;;;;20828148;28;19968;-76
2023/08/07 15:13:22;;;;;;;;;;;16.70;99.90;;;;;;20827190;28;19985;-75
2023/08/07 15:23:23;;;;;;;;;;;18.00;99.90;;;;;;20858959;28;20329;-75
2023/08/07 15:33:23;;;;;;;;;;;18.50;99.90;;;;;;20909786;28;19913;-75
2023/08/07 15:43:24;;;;;;;;;;;18.00;99.90;;;;;;20908965;28;19921;-76
2023/08/07 15:53:25;;;;;;;;;;;18.20;99.90;;;;;;20856688;28;20425;-76
2023/08/07 16:03:25;;;;;;;;;;;18.40;99.90;;;;;;20825344;28;20015;-75
2023/08/07 16:13:26;;;;;;;;;;;17.90;99.90;;;;;;20832975;28;20004;-76
2023/08/07 16:23:27;;;;;;;;;;;17.90;99.90;;;;;;20849845;28;19978;-76
2023/08/07 16:33:27;;;;;;;;;;;17.60;99.90;;;;;;20888135;28;20342;-77
2023/08/07 16:43:28;;;;;;;;;;;17.70;99.90;;;;;;20828956;28;20008;-75
2023/08/07 16:53:29;;;;;;;;;;;17.30;99.90;;;;;;20863385;28;20014;-75
2023/08/07 17:03:29;;;;;;;;;;;17.40;99.90;;;;;;20883573;28;20296;-75
2023/08/07 17:13:30;;;;;;;;;;;17.60;99.90;;;;;;20822538;28;19967;-75
2023/08/07 17:23:31;;;;;;;;;;;17.70;99.90;;;;;;20976576;23;19924;-74
2023/08/07 17:33:33;;;;;;;;;;;17.40;99.90;;;;;;21092799;28;20411;-74
2023/08/07 17:43:34;;;;;;;;;;;17.10;99.90;;;;;;21084619;28;19924;-77
2023/08/07 17:53:34;;;;;;;;;;;17.10;99.90;;;;;;21083439;28;20301;-77
2023/08/07 18:03:35;;;;;;;;;;;17.20;99.90;;;;;;21066624;28;20323;-76
2023/08/07 18:13:36;;;;;;;;;;;17.10;99.90;;;;;;21026435;28;19955;-76
2023/08/07 18:23:36;;;;;;;;;;;17.00;99.90;;;;;;21047229;28;20291;-76
2023/08/07 18:33:37;;;;;;;;;;;16.50;99.90;;;;;;21029516;28;20911;-76
2023/08/07 18:43:38;;;;;;;;;;;16.00;99.90;;;;;;21028761;28;19920;-76
2023/08/07 18:53:39;;;;;;;;;;;15.50;99.90;;;;;;21023717;28;20335;-74
2023/08/07 19:03:39;;;;;;;;;;;15.20;99.90;;;;;;20976237;28;19920;-76
2023/08/07 19:13:40;;;;;;;;;;;15.40;99.90;;;;;;21028149;28;19974;-76
2023/08/07 19:23:41;;;;;;;;;;;14.80;99.90;;;;;;21043228;28;19986;-76
2023/08/07 19:33:41;;;;;;;;;;;14.40;99.90;;;;;;21032002;28;19919;-73
2023/08/07 19:43:43;;;;;;;;;;;13.40;99.90;;;;;;21032056;28;19976;-73
2023/08/07 19:53:44;;;;;;;;;;;13.00;99.90;;;;;;21037140;28;19912;-73
2023/08/07 20:03:45;;;;;;;;;;;12.50;99.90;;;;;;21021539;28;20393;-73
2023/08/07 20:13:46;;;;;;;;;;;12.30;99.90;;;;;;21018790;28;19962;-72
2023/08/07 20:23:47;;;;;;;;;;;12.60;99.90;;;;;;21027534;28;19920;-74
2023/08/07 20:33:47;;;;;;;;;;;12.40;99.90;;;;;;21032781;28;20371;-74
2023/08/07 20:43:48;;;;;;;;;;;12.10;99.90;;;;;;21031505;28;19920;-73
2023/08/07 20:53:49;;;;;;;;;;;11.70;99.90;;;;;;21046106;28;20286;-74
2023/08/07 21:03:49;;;;;;;;;;;11.50;99.90;;;;;;21058802;28;19920;-74
2023/08/07 21:13:50;;;;;;;;;;;11.70;99.90;;;;;;21043617;28;20003;-73
2023/08/07 21:23:51;;;;;;;;;;;11.40;99.90;;;;;;21029834;28;20015;-74
2023/08/07 21:33:52;;;;;;;;;;;11.50;99.90;;;;;;21028232;28;20312;-75
2023/08/07 21:43:52;;;;;;;;;;;11.60;99.90;;;;;;21044415;28;19923;-74
2023/08/07 21:53:53;;;;;;;;;;;11.30;99.90;;;;;;21035452;28;19912;-74
2023/08/07 22:03:54;;;;;;;;;;;11.30;99.90;;;;;;21003245;28;20007;-74
2023/08/07 22:13:54;;;;;;;;;;;11.10;99.90;;;;;;21030061;28;20378;-73
2023/08/07 22:23:55;;;;;;;;;;;11.30;99.90;;;;;;21048473;28;19931;-74
2023/08/07 22:33:56;;;;;;;;;;;11.10;99.90;;;;;;21037280;28;19923;-75
2023/08/07 22:43:56;;;;;;;;;;;11.10;99.90;;;;;;21017554;28;19920;-73
2023/08/07 22:53:57;;;;;;;;;;;10.80;99.90;;;;;;21010147;28;19913;-74
2023/08/07 23:03:58;;;;;;;;;;;10.90;99.90;;;;;;20994399;28;19923;-74
2023/08/07 23:13:58;;;;;;;;;;;10.70;99.90;;;;;;21005230;28;19947;-73
2023/08/07 23:23:59;;;;;;;;;;;11.00;99.90;;;;;;21025457;28;19927;-75
2023/08/07 23:33:59;;;;;;;;;;;11.20;99.90;;;;;;21078208;28;19912;-75
2023/08/07 23:44:00;;;;;;;;;;;11.20;99.90;;;;;;21074546;28;20421;-75
2023/08/07 23:54:01;;;;;;;;;;;11.10;99.90;;;;;;21075454;28;19920;-74
